Time;durP1;ratioP1;P1;durP2;ratioP2;P2;SDS_P1;SDS_P2;PMS_P1;PMS_P2;Temp;Humidity;BMP_temperature;BMP_pressure;BME280_temperature;BME280_humidity;BME280_pressure;Samples;Min_cycle;Max_cycle;Signal;HPM_P1;HPM_P2
2023/01/18 00:00:09;;;;;;;15.77;10.33;;;;;;;0.75;100.00;95225.91;5074457;28;20574;-82
2023/01/18 00:02:37;;;;;;;14.90;9.93;;;;;;;0.71;100.00;95224.53;5074822;28;20217;-82
2023/01/18 00:05:04;;;;;;;15.80;10.47;;;;;;;0.76;100.00;95232.81;5074523;28;20212;-83
2023/01/18 00:07:31;;;;;;;16.27;10.73;;;;;;;0.73;100.00;95227.81;5074481;28;20676;-83
2023/01/18 00:09:57;;;;;;;15.57;10.43;;;;;;;0.68;100.00;95229.94;5073906;28;20231;-83
2023/01/18 00:12:24;;;;;;;17.57;11.30;;;;;;;0.71;100.00;95234.06;5074772;28;20222;-82
2023/01/18 00:14:50;;;;;;;16.13;11.20;;;;;;;0.66;100.00;95237.03;5074553;28;20208;-82
2023/01/18 00:17:17;;;;;;;19.00;11.50;;;;;;;0.71;100.00;95236.69;5074748;28;20213;-83
2023/01/18 00:19:44;;;;;;;17.07;10.63;;;;;;;0.77;100.00;95237.03;5073582;28;20208;-84
2023/01/18 00:22:11;;;;;;;16.10;10.33;;;;;;;0.79;100.00;95232.53;5074545;28;20239;-84
2023/01/18 00:24:37;;;;;;;16.50;9.80;;;;;;;0.77;100.00;95239.66;5074495;28;20213;-84
2023/01/18 00:27:04;;;;;;;16.90;10.60;;;;;;;0.73;100.00;95235.63;5074337;28;20235;-82
2023/01/18 00:29:31;;;;;;;15.93;10.37;;;;;;;0.73;100.00;95230.41;5073366;28;20207;-81
2023/01/18 00:31:57;;;;;;;18.63;11.20;;;;;;;0.70;100.00;95243.66;5074009;28;20235;-81
2023/01/18 00:34:27;;;;;;;15.97;10.77;;;;;;;0.69;100.00;95244.59;5074192;28;20205;-81
2023/01/18 00:36:54;;;;;;;16.40;10.80;;;;;;;0.65;100.00;95230.19;5074019;28;20205;-81
2023/01/18 00:39:21;;;;;;;15.70;9.83;;;;;;;0.69;100.00;95241.97;5073314;28;20208;-82
2023/01/18 00:44:28;;;;;;;13.20;9.77;;;;;;;0.76;100.00;95248.38;5073097;28;20673;-81
2023/01/18 00:46:54;;;;;;;14.53;10.10;;;;;;;0.73;100.00;95238.22;5073947;28;20231;-81
2023/01/18 00:49:21;;;;;;;14.57;9.87;;;;;;;0.69;100.00;95243.78;5073218;28;20583;-81
2023/01/18 00:51:48;;;;;;;15.87;11.00;;;;;;;0.67;100.00;95246.47;5074208;28;20233;-81
2023/01/18 00:54:16;;;;;;;17.83;10.93;;;;;;;0.64;100.00;95249.31;5074015;28;20213;-81
2023/01/18 00:56:42;;;;;;;16.63;10.57;;;;;;;0.61;100.00;95249.53;5073727;28;20205;-81
2023/01/18 00:59:09;;;;;;;20.27;11.80;;;;;;;0.65;100.00;95250.13;5072472;28;20222;-81
2023/01/18 01:01:36;;;;;;;18.23;11.63;;;;;;;0.72;100.00;95244.38;5073912;28;20254;-82
2023/01/18 01:06:46;;;;;;;17.53;10.67;;;;;;;0.76;100.00;95239.75;5073876;28;20705;-81
2023/01/18 01:09:17;;;;;;;17.53;10.60;;;;;;;0.74;100.00;95247.66;5072995;28;20205;-81
2023/01/18 01:12:31;;;;;;;15.77;10.37;;;;;;;0.73;100.00;95251.22;5073728;28;20223;-82
2023/01/18 01:28:12;;;;;;;17.13;10.87;;;;;;;0.77;100.00;95268.22;5072931;28;20207;-81
2023/01/18 01:30:39;;;;;;;18.23;10.87;;;;;;;0.75;100.00;95267.50;5072082;28;20259;-81
2023/01/18 01:33:05;;;;;;;16.93;10.57;;;;;;;0.82;100.00;95263.53;5072824;28;20624;-81
2023/01/18 01:35:32;;;;;;;19.17;11.27;;;;;;;0.74;100.00;95275.44;5073043;28;20215;-81
2023/01/18 01:37:58;;;;;;;17.03;10.67;;;;;;;0.84;100.00;95278.97;5072859;28;20210;-81
2023/01/18 01:40:25;;;;;;;17.53;11.50;;;;;;;0.80;100.00;95278.38;5072228;28;20225;-81
2023/01/18 01:42:52;;;;;;;16.30;10.50;;;;;;;0.75;100.00;95283.09;5072851;28;20219;-81
2023/01/18 01:45:21;;;;;;;17.67;10.60;;;;;;;0.77;100.00;95280.38;5072501;28;20678;-81
2023/01/18 01:47:48;;;;;;;15.70;10.70;;;;;;;0.70;100.00;95269.66;5072894;28;20223;-81
2023/01/18 01:50:19;;;;;;;16.27;10.53;;;;;;;0.77;100.00;95276.03;5071794;28;20233;-81
2023/01/18 01:52:47;;;;;;;17.03;11.10;;;;;;;0.85;100.00;95278.88;5072543;28;20207;-81
2023/01/18 01:55:20;;;;;;;16.47;10.80;;;;;;;0.85;100.00;95283.22;5079036;28;20205;-82
2023/01/18 01:57:50;;;;;;;13.80;10.10;;;;;;;0.80;100.00;95291.38;5082599;28;20209;-81
2023/01/18 02:00:22;;;;;;;14.97;10.37;;;;;;;0.81;100.00;95287.81;5083098;28;20231;-81
2023/01/18 02:02:52;;;;;;;16.33;10.77;;;;;;;0.80;100.00;95291.38;5084100;28;20295;-82
2023/01/18 02:05:18;;;;;;;16.77;10.43;;;;;;;0.76;100.00;95295.19;5075354;28;20221;-82
2023/01/18 02:07:46;;;;;;;17.17;11.20;;;;;;;0.79;100.00;95294.09;5073262;28;20229;-81
2023/01/18 02:10:12;;;;;;;16.80;11.40;;;;;;;0.79;100.00;95300.13;5070774;28;20628;-81
2023/01/18 02:12:42;;;;;;;17.27;10.73;;;;;;;0.78;100.00;95302.84;5072655;28;20824;-81
2023/01/18 02:15:10;;;;;;;16.80;11.33;;;;;;;0.73;100.00;95303.19;5072097;28;20691;-81
2023/01/18 02:17:55;;;;;;;16.50;10.40;;;;;;;0.80;100.00;95306.16;5072241;28;20585;-81
2023/01/18 02:21:03;;;;;;;17.67;11.17;;;;;;;0.73;100.00;95302.34;5071222;28;20615;-80
2023/01/18 02:23:34;;;;;;;16.77;10.37;;;;;;;0.71;100.00;95307.69;5072028;28;20207;-80
2023/01/18 02:26:29;;;;;;;14.63;10.23;;;;;;;0.68;100.00;95301.88;5072072;28;20231;-80
2023/01/18 02:29:01;;;;;;;17.07;10.80;;;;;;;0.77;100.00;95311.56;5070998;28;20239;-81
2023/01/18 02:31:34;;;;;;;20.70;12.00;;;;;;;0.77;100.00;95302.03;5071783;28;20237;-80
2023/01/18 02:34:06;;;;;;;15.03;10.87;;;;;;;0.76;100.00;95310.78;5072077;28;20294;-80
2023/01/18 02:36:43;;;;;;;20.33;11.47;;;;;;;0.73;100.00;95316.19;5072012;28;20199;-80
2023/01/18 02:39:22;;;;;;;18.60;12.07;;;;;;;0.75;100.00;95316.88;5071148;28;20564;-80
2023/01/18 02:47:28;;;;;;;23.03;13.50;;;;;;;0.73;100.00;95326.56;5071547;28;20247;-81
2023/01/18 02:49:55;;;;;;;20.90;13.43;;;;;;;0.76;100.00;95321.16;5070727;28;20220;-80
2023/01/18 02:52:40;;;;;;;17.03;11.20;;;;;;;0.70;100.00;95324.22;5071313;28;20210;-80
2023/01/18 02:55:11;;;;;;;20.63;12.67;;;;;;;0.78;100.00;95324.47;5071504;28;20216;-80
2023/01/18 02:57:38;;;;;;;22.77;12.73;;;;;;;0.73;100.00;95328.34;5071399;28;20211;-81
2023/01/18 03:00:10;;;;;;;17.93;12.00;;;;;;;0.74;100.00;95338.63;5070608;28;20250;-80
2023/01/18 03:02:40;;;;;;;21.77;12.73;;;;;;;0.80;100.00;95327.75;5071579;28;20211;-80
2023/01/18 03:05:09;;;;;;;22.27;13.57;;;;;;;0.75;100.00;95335.06;5071546;28;20208;-80
2023/01/18 03:07:43;;;;;;;24.67;14.33;;;;;;;0.79;100.00;95333.91;5071557;28;20300;-80
2023/01/18 03:10:12;;;;;;;23.73;13.70;;;;;;;0.85;100.00;95330.84;5070780;28;20237;-81
2023/01/18 03:12:48;;;;;;;23.40;13.47;;;;;;;0.75;100.00;95324.69;5071536;28;20211;-80
2023/01/18 03:15:22;;;;;;;23.50;13.67;;;;;;;0.71;100.00;95336.28;5071236;28;20227;-80
2023/01/18 03:17:52;;;;;;;24.30;13.70;;;;;;;0.77;100.00;95333.22;5071596;28;20582;-80
2023/01/18 03:20:24;;;;;;;23.50;13.20;;;;;;;0.80;100.00;95338.16;5070438;28;20224;-80
2023/01/18 03:25:43;;;;;;;23.10;13.13;;;;;;;0.76;100.00;95352.34;5071296;28;20231;-80
2023/01/18 03:33:49;;;;;;;20.67;12.00;;;;;;;0.85;100.00;95340.41;5071332;28;20306;-80
2023/01/18 03:36:24;;;;;;;18.50;11.83;;;;;;;0.80;100.00;95338.16;5071258;28;20208;-80
2023/01/18 03:38:54;;;;;;;18.90;12.63;;;;;;;0.71;100.00;95346.66;5070745;28;20211;-80
2023/01/18 03:41:24;;;;;;;19.00;11.67;;;;;;;0.71;100.00;95349.25;5071540;28;20235;-80
2023/01/18 03:43:54;;;;;;;23.97;13.17;;;;;;;0.72;100.00;95350.06;5071114;28;20216;-80
2023/01/18 03:46:25;;;;;;;22.17;13.10;;;;;;;0.72;100.00;95356.09;5071042;28;20239;-80
2023/01/18 03:48:52;;;;;;;22.30;12.83;;;;;;;0.78;100.00;95357.41;5070126;28;20223;-80
2023/01/18 03:51:24;;;;;;;20.03;12.27;;;;;;;0.81;100.00;95355.41;5071081;28;20223;-80
2023/01/18 03:53:58;;;;;;;17.30;11.53;;;;;;;0.72;100.00;95365.66;5071210;28;20203;-80
2023/01/18 03:56:29;;;;;;;19.83;12.47;;;;;;;0.77;100.00;95369.59;5070930;28;20678;-80
2023/01/18 03:59:00;;;;;;;20.27;12.27;;;;;;;0.75;100.00;95371.47;5070370;28;20211;-80
2023/01/18 04:01:28;;;;;;;25.60;13.67;;;;;;;0.68;100.00;95374.66;5071500;28;20231;-80
2023/01/18 04:03:54;;;;;;;20.40;13.33;;;;;;;0.81;100.00;95378.78;5070901;28;20319;-80
2023/01/18 04:06:22;;;;;;;20.90;13.30;;;;;;;0.81;100.00;95376.19;5071076;28;20258;-80
2023/01/18 04:08:48;;;;;;;23.10;12.67;;;;;;;0.80;100.00;95376.34;5070157;28;20217;-80
2023/01/18 04:11:15;;;;;;;20.13;12.90;;;;;;;0.73;100.00;95378.56;5070815;28;20228;-81
2023/01/18 04:13:41;;;;;;;18.43;11.60;;;;;;;0.76;100.00;95380.94;5071089;28;20576;-81
2023/01/18 04:16:08;;;;;;;20.00;11.47;;;;;;;0.75;100.00;95381.84;5070965;28;20573;-80
2023/01/18 04:18:36;;;;;;;17.47;11.77;;;;;;;0.69;100.00;95389.28;5070813;28;20216;-80
2023/01/18 04:21:02;;;;;;;19.57;12.07;;;;;;;0.72;100.00;95392.50;5069952;28;20227;-80
2023/01/18 04:23:28;;;;;;;19.13;11.40;;;;;;;0.72;100.00;95381.25;5070780;28;20211;-80
2023/01/18 04:25:55;;;;;;;19.40;12.57;;;;;;;0.62;100.00;95391.50;5070574;28;20204;-80
2023/01/18 04:28:25;;;;;;;20.97;12.47;;;;;;;0.58;100.00;95394.44;5071184;28;20243;-80
2023/01/18 04:30:52;;;;;;;22.23;13.60;;;;;;;0.52;100.00;95380.16;5084420;22;20223;-75
2023/01/18 04:33:19;;;;;;;20.57;13.03;;;;;;;0.60;100.00;95393.41;5071248;28;20567;-75
2023/01/18 04:35:47;;;;;;;20.67;12.57;;;;;;;0.60;100.00;95398.59;5079550;28;20207;-75
2023/01/18 04:38:14;;;;;;;18.07;11.60;;;;;;;0.58;100.00;95404.84;5084878;28;20212;-75
2023/01/18 04:40:41;;;;;;;17.00;11.87;;;;;;;0.53;100.00;95412.13;5086158;28;20253;-77
2023/01/18 04:43:07;;;;;;;18.07;11.17;;;;;;;0.50;100.00;95413.19;5092848;28;20195;-75
2023/01/18 04:45:34;;;;;;;17.33;10.70;;;;;;;0.58;100.00;95413.47;5094046;28;20207;-76
2023/01/18 04:48:01;;;;;;;17.63;10.27;;;;;;;0.63;100.00;95408.75;5085992;28;20231;-75
2023/01/18 04:50:27;;;;;;;18.73;12.27;;;;;;;0.62;100.00;95417.50;5085906;28;20246;-75
2023/01/18 04:52:55;;;;;;;17.30;11.43;;;;;;;0.51;100.00;95417.44;5084125;28;20205;-75
2023/01/18 04:55:21;;;;;;;19.37;11.00;;;;;;;0.50;100.00;95426.19;5074229;28;20203;-75
2023/01/18 04:57:54;;;;;;;18.23;11.50;;;;;;;0.54;100.00;95425.03;5074021;28;20204;-76
2023/01/18 05:00:21;;;;;;;18.00;10.13;;;;;;;0.63;100.00;95439.13;5073514;28;20227;-76
2023/01/18 05:02:48;;;;;;;15.47;9.70;;;;;;;0.55;100.00;95437.06;5074121;28;20230;-76
2023/01/18 05:05:15;;;;;;;15.47;10.27;;;;;;;0.55;100.00;95442.25;5073894;28;20626;-77
2023/01/18 05:07:41;;;;;;;15.00;9.90;;;;;;;0.63;100.00;95444.31;5073465;28;20236;-75
2023/01/18 05:10:11;;;;;;;11.20;8.90;;;;;;;0.58;100.00;95446.41;5072923;28;20215;-76
2023/01/18 05:12:37;;;;;;;11.57;8.53;;;;;;;0.52;100.00;95457.25;5073523;28;20213;-77
2023/01/18 05:15:04;;;;;;;12.20;8.60;;;;;;;0.47;100.00;95455.00;5073515;28;20207;-75
2023/01/18 05:17:33;;;;;;;12.70;8.60;;;;;;;0.43;100.00;95463.94;5073364;28;20772;-75
2023/01/18 05:20:00;;;;;;;11.97;8.30;;;;;;;0.37;100.00;95468.75;5072378;28;20290;-75
2023/01/18 05:22:27;;;;;;;12.27;7.83;;;;;;;0.46;100.00;95481.06;5073129;28;20212;-75
2023/01/18 05:24:54;;;;;;;10.30;7.77;;;;;;;0.48;100.00;95485.22;5073115;28;20269;-75
2023/01/18 05:27:22;;;;;;;9.57;6.80;;;;;;;0.53;100.00;95498.72;5073244;28;20242;-76
2023/01/18 05:29:49;;;;;;;10.93;7.47;;;;;;;0.53;100.00;95503.91;5072334;28;20208;-76
2023/01/18 05:32:15;;;;;;;10.30;6.93;;;;;;;0.50;100.00;95505.91;5072795;28;20550;-75
2023/01/18 05:34:42;;;;;;;9.27;7.00;;;;;;;0.49;100.00;95514.63;5072973;28;20207;-75
2023/01/18 05:37:09;;;;;;;9.00;7.57;;;;;;;0.40;100.00;95516.13;5073229;28;20617;-75
2023/01/18 05:39:36;;;;;;;8.93;6.70;;;;;;;0.43;100.00;95518.47;5072482;28;20259;-75
2023/01/18 05:42:02;;;;;;;7.67;5.80;;;;;;;0.44;100.00;95533.13;5073059;28;20231;-75
2023/01/18 05:44:30;;;;;;;8.27;6.70;;;;;;;0.49;100.00;95531.03;5072845;28;20224;-76
2023/01/18 05:46:57;;;;;;;8.63;6.60;;;;;;;0.46;100.00;95533.03;5072667;28;20223;-75
2023/01/18 05:49:24;;;;;;;7.90;6.07;;;;;;;0.57;100.00;95533.91;5071985;28;20576;-76
2023/01/18 05:51:51;;;;;;;8.63;6.57;;;;;;;0.53;100.00;95531.66;5072574;28;20318;-77
2023/01/18 05:54:18;;;;;;;8.37;6.23;;;;;;;0.50;100.00;95540.50;5072536;28;20220;-75
2023/01/18 05:56:45;;;;;;;8.97;6.43;;;;;;;0.47;100.00;95540.72;5072631;28;20682;-75
2023/01/18 05:59:13;;;;;;;7.63;5.63;;;;;;;0.45;100.00;95547.78;5071941;28;20216;-75
2023/01/18 06:01:41;;;;;;;8.33;6.50;;;;;;;0.53;100.00;95558.47;5072467;28;20608;-75
2023/01/18 06:04:08;;;;;;;9.63;6.90;;;;;;;0.47;100.00;95561.50;5072857;28;20558;-75
2023/01/18 06:06:34;;;;;;;10.57;7.20;;;;;;;0.43;100.00;95575.63;5072819;28;20222;-75
2023/01/18 06:09:02;;;;;;;9.07;6.63;;;;;;;0.43;100.00;95583.44;5071813;28;20209;-76
2023/01/18 06:11:28;;;;;;;8.20;6.67;;;;;;;0.50;100.00;95589.84;5072228;28;20318;-75
2023/01/18 06:13:55;;;;;;;9.73;6.20;;;;;;;0.49;100.00;95592.56;5072232;28;20572;-76
2023/01/18 06:16:22;;;;;;;10.07;6.40;;;;;;;0.42;100.00;95604.31;5072004;28;20208;-75
2023/01/18 06:18:50;;;;;;;9.83;6.80;;;;;;;0.42;100.00;95607.75;5071752;28;20214;-75
2023/01/18 06:21:16;;;;;;;8.73;6.40;;;;;;;0.44;100.00;95611.06;5072003;28;20227;-75
2023/01/18 06:23:43;;;;;;;9.93;6.33;;;;;;;0.44;100.00;95615.44;5072149;28;20262;-75
2023/01/18 06:26:10;;;;;;;9.03;6.87;;;;;;;0.45;100.00;95617.09;5071947;28;20225;-75
2023/01/18 06:28:36;;;;;;;8.27;6.80;;;;;;;0.46;100.00;95618.75;5071877;28;20227;-75
2023/01/18 06:31:06;;;;;;;8.30;6.60;;;;;;;0.44;100.00;95626.66;5070899;28;20233;-75
2023/01/18 06:33:33;;;;;;;9.33;7.10;;;;;;;0.50;100.00;95626.22;5072013;28;20261;-75
2023/01/18 06:36:01;;;;;;;8.47;6.43;;;;;;;0.49;100.00;95632.38;5071908;28;20537;-75
2023/01/18 06:38:28;;;;;;;10.27;6.97;;;;;;;0.51;100.00;95637.47;5071745;28;20642;-75
2023/01/18 06:40:55;;;;;;;8.63;6.20;;;;;;;0.48;100.00;95648.91;5070860;28;20231;-73
2023/01/18 06:43:21;;;;;;;8.47;6.03;;;;;;;0.46;100.00;95647.34;5071716;28;20208;-76
2023/01/18 06:45:52;;;;;;;9.70;7.03;;;;;;;0.42;100.00;95654.50;5071685;28;20298;-83
2023/01/18 06:48:18;;;;;;;11.00;7.60;;;;;;;0.47;100.00;95661.97;5071987;28;20242;-81
2023/01/18 06:50:45;;;;;;;8.47;6.57;;;;;;;0.49;100.00;95663.53;5071126;28;20338;-81
2023/01/18 06:53:13;;;;;;;9.17;6.67;;;;;;;0.49;100.00;95671.34;5071780;28;20215;-80
2023/01/18 06:55:39;;;;;;;9.30;6.70;;;;;;;0.46;100.00;95676.75;5071727;28;20229;-80
2023/01/18 06:58:06;;;;;;;11.23;7.20;;;;;;;0.43;100.00;95676.13;5071032;28;20210;-81
2023/01/18 07:00:33;;;;;;;9.80;6.70;;;;;;;0.47;100.00;95678.41;5070577;28;20243;-80
2023/01/18 07:03:00;;;;;;;8.83;7.20;;;;;;;0.45;100.00;95680.25;5071522;28;20214;-81
2023/01/18 07:05:26;;;;;;;7.10;5.87;;;;;;;0.40;100.00;95687.56;5071503;28;20223;-81
2023/01/18 07:07:53;;;;;;;12.23;7.27;;;;;;;0.44;100.00;95678.59;5071380;28;20234;-80
2023/01/18 07:10:21;;;;;;;10.47;7.30;;;;;;;0.48;100.00;95693.06;5070772;28;20247;-80
2023/01/18 07:12:49;;;;;;;10.07;7.57;;;;;;;0.39;100.00;95696.28;5071283;28;20222;-80
2023/01/18 07:15:16;;;;;;;11.77;8.40;;;;;;;0.42;100.00;95706.47;5071514;28;20211;-80
2023/01/18 07:17:43;;;;;;;12.97;8.63;;;;;;;0.49;100.00;95707.72;5071807;28;20306;-79
2023/01/18 07:20:12;;;;;;;12.27;8.80;;;;;;;0.48;100.00;95708.66;5070887;28;20302;-76
2023/01/18 07:22:38;;;;;;;14.30;9.40;;;;;;;0.43;100.00;95713.31;5071669;28;20238;-76
2023/01/18 07:25:06;;;;;;;14.87;10.07;;;;;;;0.40;100.00;95718.75;5071534;28;20214;-77
2023/01/18 07:27:34;;;;;;;16.87;10.47;;;;;;;0.41;100.00;95735.13;5071439;28;20227;-77
2023/01/18 07:30:00;;;;;;;16.87;11.17;;;;;;;0.41;100.00;95729.94;5070574;28;20212;-77
2023/01/18 07:32:26;;;;;;;18.63;11.97;;;;;;;0.44;100.00;95745.34;5071155;28;20219;-76
2023/01/18 07:34:53;;;;;;;16.73;12.57;;;;;;;0.39;100.00;95743.03;5071305;28;20252;-77
2023/01/18 07:37:20;;;;;;;15.83;11.23;;;;;;;0.43;100.00;95748.88;5071190;28;20215;-76
2023/01/18 07:39:46;;;;;;;19.33;13.10;;;;;;;0.36;100.00;95756.22;5070252;28;20212;-76
2023/01/18 07:42:13;;;;;;;20.92;16.60;;;;;;;0.38;100.00;95756.94;5068556;28;20805;-78
2023/01/18 07:44:40;;;;;;;18.93;13.77;;;;;;;0.38;100.00;95758.75;5069191;28;20226;-76
2023/01/18 07:47:07;;;;;;;15.77;11.80;;;;;;;0.38;100.00;95766.53;5069229;28;20230;-78
2023/01/18 07:49:34;;;;;;;14.73;11.93;;;;;;;0.36;100.00;95765.78;5070190;28;20207;-78
2023/01/18 07:52:00;;;;;;;16.80;13.13;;;;;;;0.22;100.00;95769.31;5070749;28;20687;-79
2023/01/18 07:54:27;;;;;;;17.57;12.10;;;;;;;0.30;100.00;95774.81;5071070;28;20692;-79
2023/01/18 07:56:53;;;;;;;17.20;13.30;;;;;;;0.32;100.00;95777.31;5071132;28;20219;-76
2023/01/18 07:59:20;;;;;;;18.73;13.30;;;;;;;0.32;100.00;95783.34;5070335;28;20585;-78
2023/01/18 08:01:48;;;;;;;19.13;13.27;;;;;;;0.29;100.00;95788.75;5070884;28;20329;-77
2023/01/18 08:04:14;;;;;;;17.50;12.47;;;;;;;0.22;100.00;95797.88;5070842;28;20204;-78
2023/01/18 08:06:41;;;;;;;17.13;13.50;;;;;;;0.28;100.00;95792.28;5070754;28;20231;-78
2023/01/18 08:09:07;;;;;;;19.03;14.07;;;;;;;0.29;100.00;95803.50;5071828;28;20227;-78
2023/01/18 08:11:33;;;;;;;17.20;13.40;;;;;;;0.33;100.00;95805.78;5074422;28;20227;-77
2023/01/18 08:14:00;;;;;;;15.63;12.23;;;;;;;0.32;100.00;95809.31;5074387;28;20568;-77
2023/01/18 08:16:28;;;;;;;21.50;13.37;;;;;;;0.25;100.00;95821.03;5074411;28;20208;-77
2023/01/18 08:18:55;;;;;;;18.53;13.43;;;;;;;0.32;100.00;95824.91;5073789;28;20803;-77
2023/01/18 08:21:22;;;;;;;19.13;13.80;;;;;;;0.35;100.00;95824.72;5074305;28;20238;-78
2023/01/18 08:23:49;;;;;;;17.47;12.97;;;;;;;0.42;100.00;95828.56;5072272;28;20207;-78
2023/01/18 08:26:16;;;;;;;17.33;12.90;;;;;;;0.46;100.00;95837.00;5074145;28;20204;-79
2023/01/18 08:28:43;;;;;;;18.25;13.77;;;;;;;0.46;100.00;95842.19;5073842;28;20465;-79
2023/01/18 08:31:12;;;;;;;15.07;11.47;;;;;;;0.48;100.00;95853.28;5073628;28;20651;-79
2023/01/18 08:33:41;;;;;;;19.48;16.10;;;;;;;0.52;100.00;95853.00;5072440;28;20790;-79
2023/01/18 08:36:13;;;;;;;15.53;12.23;;;;;;;0.40;100.00;95860.78;5073902;28;20214;-78
2023/01/18 08:38:40;;;;;;;16.33;11.70;;;;;;;0.42;100.00;95869.28;5073957;28;20711;-77
2023/01/18 08:41:06;;;;;;;15.03;11.93;;;;;;;0.45;100.00;95877.72;5072953;28;20222;-77
2023/01/18 08:43:33;;;;;;;16.60;11.17;;;;;;;0.61;100.00;95882.75;5073976;28;20211;-77
2023/01/18 08:46:00;;;;;;;16.30;11.67;;;;;;;0.57;100.00;95892.50;5073799;28;20578;-77
2023/01/18 08:48:26;;;;;;;15.47;11.20;;;;;;;0.53;100.00;95896.25;5073635;28;20219;-77
2023/01/18 08:50:53;;;;;;;15.43;11.33;;;;;;;0.52;100.00;95896.34;5073070;28;20581;-77
2023/01/18 08:53:21;;;;;;;16.17;11.83;;;;;;;0.44;100.00;95904.63;5073945;28;20226;-77
2023/01/18 08:55:48;;;;;;;17.37;11.93;;;;;;;0.47;100.00;95904.44;5073453;28;20215;-77
2023/01/18 08:58:14;;;;;;;14.47;10.63;;;;;;;0.42;100.00;95914.28;5073426;28;20320;-77
2023/01/18 09:00:41;;;;;;;15.23;11.73;;;;;;;0.41;100.00;95911.78;5072647;28;20228;-78
2023/01/18 09:03:07;;;;;;;14.07;10.47;;;;;;;0.43;100.00;95921.16;5073550;28;20580;-77
2023/01/18 09:05:35;;;;;;;18.23;12.10;;;;;;;0.41;100.00;95920.44;5073646;28;20208;-77
2023/01/18 09:08:02;;;;;;;15.07;11.07;;;;;;;0.43;100.00;95931.53;5073590;28;20308;-77
2023/01/18 09:10:31;;;;;;;14.80;10.90;;;;;;;0.46;100.00;95931.38;5072597;28;20228;-77
2023/01/18 09:12:58;;;;;;;16.03;10.57;;;;;;;0.44;100.00;95932.38;5073430;28;20605;-77
2023/01/18 09:15:25;;;;;;;15.10;10.27;;;;;;;0.40;100.00;95939.56;5073327;28;20206;-77
2023/01/18 09:17:52;;;;;;;13.80;10.60;;;;;;;0.40;100.00;95949.09;5073237;28;20273;-77
2023/01/18 09:20:19;;;;;;;15.40;10.80;;;;;;;0.45;100.00;95944.44;5072164;28;20228;-77
2023/01/18 09:22:46;;;;;;;17.67;10.80;;;;;;;0.51;100.00;95951.84;5072925;28;20212;-77
2023/01/18 09:25:13;;;;;;;15.60;10.97;;;;;;;0.58;100.00;95953.97;5073148;28;20200;-78
2023/01/18 09:27:41;;;;;;;14.10;10.90;;;;;;;0.59;100.00;95960.81;5072820;28;20217;-77
2023/01/18 09:30:09;;;;;;;13.00;9.87;;;;;;;0.61;100.00;95964.13;5072143;28;20242;-78
2023/01/18 09:32:35;;;;;;;14.43;10.27;;;;;;;0.62;100.00;95973.59;5073337;28;20214;-77
2023/01/18 09:35:02;;;;;;;16.43;9.90;;;;;;;0.69;100.00;95981.84;5073368;28;20586;-75
2023/01/18 09:37:30;;;;;;;12.57;9.50;;;;;;;0.71;100.00;95986.03;5072907;28;20211;-77
2023/01/18 09:39:56;;;;;;;13.13;10.17;;;;;;;0.65;100.00;95991.63;5071664;28;20200;-77
2023/01/18 09:42:28;;;;;;;14.70;9.93;;;;;;;0.81;100.00;96000.06;5070648;28;20204;-77
2023/01/18 09:44:58;;;;;;;13.37;10.30;;;;;;;0.79;100.00;95996.75;5072887;28;20196;-75
2023/01/18 09:47:27;;;;;;;12.93;9.57;;;;;;;0.74;100.00;96011.78;5072881;28;20225;-76
2023/01/18 09:49:56;;;;;;;14.43;10.33;;;;;;;0.77;100.00;96014.22;5072424;28;20230;-74
2023/01/18 09:52:37;;;;;;;12.90;9.20;;;;;;;0.77;100.00;96018.56;5072918;28;20215;-77
2023/01/18 09:55:14;;;;;;;13.83;8.57;;;;;;;0.71;100.00;96022.41;5073239;28;20594;-76
2023/01/18 09:58:00;;;;;;;11.87;8.87;;;;;;;0.72;100.00;96024.06;5071508;28;20306;-76
2023/01/18 10:00:31;;;;;;;9.53;8.13;;;;;;;0.68;100.00;96020.00;5072286;28;20721;-76
2023/01/18 10:03:00;;;;;;;10.97;7.93;;;;;;;0.80;100.00;96023.59;5073039;28;20224;-76
2023/01/18 10:05:30;;;;;;;11.20;8.90;;;;;;;0.74;100.00;96029.19;5072915;28;20208;-76
2023/01/18 10:08:03;;;;;;;9.93;7.37;;;;;;;0.72;100.00;96023.22;5074463;28;20208;-76
2023/01/18 10:10:36;;;;;;;9.37;7.47;;;;;;;0.77;100.00;96034.16;5076062;28;20219;-76
2023/01/18 10:13:27;;;;;;;11.07;8.00;;;;;;;0.72;100.00;96037.06;5079063;28;20218;-75
2023/01/18 10:15:55;;;;;;;11.80;8.50;;;;;;;0.82;100.00;96045.97;5079923;28;20209;-76
2023/01/18 10:18:22;;;;;;;10.53;8.10;;;;;;;0.79;100.00;96042.69;5077557;28;20199;-76
2023/01/18 10:20:54;;;;;;;11.73;8.20;;;;;;;0.73;100.00;96049.13;5080818;28;20314;-75
2023/01/18 10:23:27;;;;;;;12.60;9.13;;;;;;;0.70;100.00;96054.53;5078045;28;20290;-76
2023/01/18 10:25:56;;;;;;;12.80;9.43;;;;;;;0.80;100.00;96050.41;5084359;28;20217;-76
2023/01/18 10:28:32;;;;;;;12.67;10.13;;;;;;;0.79;100.00;96056.53;5087251;28;20227;-76
2023/01/18 10:31:16;;;;;;;15.03;10.33;;;;;;;0.73;100.00;96051.72;5096074;22;20356;-80
2023/01/18 10:33:45;;;;;;;12.83;9.50;;;;;;;0.81;100.00;96054.66;5070001;28;20219;-80
2023/01/18 10:36:15;;;;;;;14.50;9.73;;;;;;;0.90;100.00;96064.50;5070626;28;20231;-85
2023/01/18 10:38:42;;;;;;;12.33;8.43;;;;;;;0.83;100.00;96058.03;5069745;28;20212;-81
2023/01/18 10:41:18;;;;;;;13.97;9.07;;;;;;;0.91;100.00;96066.16;5070443;28;20223;-80
2023/01/18 10:43:45;;;;;;;16.53;9.50;;;;;;;0.91;100.00;96062.72;5071070;28;20206;-79
2023/01/18 10:46:16;;;;;;;13.63;8.93;;;;;;;0.91;100.00;96068.75;5071045;28;20572;-79
2023/01/18 10:48:45;;;;;;;11.63;8.40;;;;;;;0.95;100.00;96072.00;5069685;28;20223;-80
2023/01/18 10:51:30;;;;;;;14.03;8.50;;;;;;;1.02;100.00;96078.47;5070539;28;20223;-77
2023/01/18 10:53:56;;;;;;;11.13;8.33;;;;;;;1.05;100.00;96081.69;5071116;28;20195;-78
2023/01/18 10:56:25;;;;;;;14.10;8.87;;;;;;;1.22;100.00;96088.44;5071008;28;20207;-79
2023/01/18 10:58:56;;;;;;;12.33;8.60;;;;;;;1.19;100.00;96086.88;5070337;28;20211;-79
2023/01/18 11:01:27;;;;;;;11.53;8.27;;;;;;;1.14;100.00;96088.06;5070468;28;20737;-82
2023/01/18 11:03:55;;;;;;;12.97;8.20;;;;;;;1.20;100.00;96096.34;5071018;28;20214;-78
2023/01/18 11:09:50;;;;;;;12.93;7.87;;;;;;;1.35;100.00;96100.53;5070372;28;20322;-78
2023/01/18 11:12:35;;;;;;;11.27;7.40;;;;;;;1.39;100.00;96091.59;5070960;28;20425;-76
2023/01/18 11:15:22;;;;;;;13.23;7.43;;;;;;;1.29;100.00;96106.13;5071248;28;20208;-77
2023/01/18 11:18:02;;;;;;;8.47;6.70;;;;;;;1.28;100.00;96096.66;5071098;28;20211;-79
2023/01/18 11:20:35;;;;;;;10.93;7.03;;;;;;;1.21;100.00;96108.41;5070147;28;20204;-81
2023/01/18 11:23:04;;;;;;;11.13;6.73;;;;;;;1.15;100.00;96103.59;5071316;28;20240;-81
2023/01/18 11:25:37;;;;;;;10.13;7.00;;;;;;;1.12;100.00;96110.75;5070984;28;20214;-79
2023/01/18 11:28:07;;;;;;;11.17;6.70;;;;;;;1.08;100.00;96111.88;5071058;28;20215;-80
2023/01/18 11:30:34;;;;;;;9.60;6.00;;;;;;;1.07;100.00;96111.06;5070071;28;20224;-81
2023/01/18 11:33:02;;;;;;;11.33;6.57;;;;;;;0.99;100.00;96112.47;5070772;28;20229;-80
2023/01/18 11:35:32;;;;;;;10.50;7.13;;;;;;;1.08;100.00;96123.13;5070872;28;20226;-81
2023/01/18 11:38:00;;;;;;;15.83;6.83;;;;;;;1.22;100.00;96125.66;5071088;28;20211;-81
2023/01/18 11:40:29;;;;;;;12.13;8.52;;;;;;;1.35;100.00;96126.53;5067896;28;20438;-82
2023/01/18 11:43:02;;;;;;;11.27;7.57;;;;;;;1.40;100.00;96132.28;5069668;28;20300;-82
2023/01/18 11:45:33;;;;;;;10.77;7.67;;;;;;;1.38;100.00;96138.53;5073784;28;20584;-82
2023/01/18 11:48:07;;;;;;;11.03;6.97;;;;;;;1.45;100.00;96143.25;5074518;28;20205;-81
2023/01/18 11:50:41;;;;;;;11.97;8.13;;;;;;;1.44;100.00;96141.56;5065558;28;20226;-82
2023/01/18 11:53:16;;;;;;;14.97;8.23;;;;;;;1.43;100.00;96147.72;5054794;28;20240;-82
2023/01/18 11:55:54;;;;;;;10.30;7.67;;;;;;;1.40;100.00;96142.69;5053965;28;20212;-82
2023/01/18 11:58:25;;;;;;;9.57;7.53;;;;;;;1.34;100.00;96140.50;5053287;28;20239;-80
2023/01/18 12:01:01;;;;;;;11.33;7.83;;;;;;;1.41;100.00;96146.16;5053170;28;20668;-81
2023/01/18 12:03:52;;;;;;;10.87;7.17;;;;;;;1.37;100.00;96145.53;5053553;28;20208;-81
2023/01/18 12:06:34;;;;;;;9.90;7.20;;;;;;;1.35;100.00;96152.56;5053455;28;20208;-81